Terminal Aerodrome Forecast
Issued by NWS Wilmington, NC

Home | Current Version | Previous Version | Text Only | Print | Product List | Glossary On
Versions: 1 2 3 4 5 6 7 8 9 10 11 12 13 14 15
741
FTUS42 KILM 220633 AAA
TAFLBT
TAF AMD
KLBT 220633Z 2207/2306 00000KT P6SM BKN250
      TEMPO 2207/2210 1SM BR
     FM221000 00000KT 3SM BR SCT250
     FM221300 09006KT P6SM SCT250
     FM221800 12008KT P6SM SCT045
     FM230000 10005KT P6SM BKN100=

USA.gov is the U.S. government's official web portal to all federal, state and local government web resources and services.